METAR Data
IDs: Format: Raw Decoded Include TAF

Data at: 2111 UTC 22 Sep 2020

METAR for:KRMN (Stafford Rgnl, VA, US)
Text:KRMN 222055Z AUTO 27007KT 10SM CLR 21/07 A3010 RMK AO2 T02130068
Temperature: 21.3°C ( 70°F)
Dewpoint: 6.8°C ( 44°F) [RH = 39%]
Pressure (altimeter):30.10 inches Hg (1019.4 mb)
Winds:from the W (270 degrees) at 8 MPH (7 knots; 3.6 m/s)
Visibility:10 or more sm (16+ km)
Ceiling:at least 12,000 feet AGL
Clouds:sky clear below 12,000 feet AGL
QC Flag:automated observation with no human augmentation